sensor_id;sensor_type;location;lat;lon;timestamp;temperature;humidity
29007;DHT22;16104;48.642;9.008;2023-02-20T00:01:32;10.40;64.70
29007;DHT22;16104;48.642;9.008;2023-02-20T00:06:28;10.40;65.00
29007;DHT22;16104;48.642;9.008;2023-02-20T00:11:24;10.30;65.10
29007;DHT22;16104;48.642;9.008;2023-02-20T00:16:19;10.30;65.10
29007;DHT22;16104;48.642;9.008;2023-02-20T00:21:15;10.30;65.30
29007;DHT22;16104;48.642;9.008;2023-02-20T00:26:12;10.30;65.30
29007;DHT22;16104;48.642;9.008;2023-02-20T00:31:12;10.30;65.30
29007;DHT22;16104;48.642;9.008;2023-02-20T00:36:14;10.30;65.40
29007;DHT22;16104;48.642;9.008;2023-02-20T00:41:11;10.20;66.30
29007;DHT22;16104;48.642;9.008;2023-02-20T00:46:12;10.30;65.40
29007;DHT22;16104;48.642;9.008;2023-02-20T00:51:08;10.20;65.60
29007;DHT22;16104;48.642;9.008;2023-02-20T00:56:04;10.30;65.30
29007;DHT22;16104;48.642;9.008;2023-02-20T02:02:05;10.30;64.80
29007;DHT22;16104;48.642;9.008;2023-02-20T02:07:01;10.30;65.00
29007;DHT22;16104;48.642;9.008;2023-02-20T02:11:56;10.30;64.90
29007;DHT22;16104;48.642;9.008;2023-02-20T03:02:49;10.00;64.90
29007;DHT22;16104;48.642;9.008;2023-02-20T03:07:50;10.00;65.10
29007;DHT22;16104;48.642;9.008;2023-02-20T03:12:50;10.00;65.00
29007;DHT22;16104;48.642;9.008;2023-02-20T04:04:46;9.70;65.00
29007;DHT22;16104;48.642;9.008;2023-02-20T04:09:44;9.60;64.90
29007;DHT22;16104;48.642;9.008;2023-02-20T04:14:41;9.60;64.90
29007;DHT22;16104;48.642;9.008;2023-02-20T04:19:37;9.50;64.80
29007;DHT22;16104;48.642;9.008;2023-02-20T04:24:52;9.50;64.80
29007;DHT22;16104;48.642;9.008;2023-02-20T04:29:49;9.40;65.00
29007;DHT22;16104;48.642;9.008;2023-02-20T04:34:44;9.40;64.80
29007;DHT22;16104;48.642;9.008;2023-02-20T04:39:40;9.30;64.80
29007;DHT22;16104;48.642;9.008;2023-02-20T04:44:36;9.30;64.90
29007;DHT22;16104;48.642;9.008;2023-02-20T04:49:32;9.20;64.90
29007;DHT22;16104;48.642;9.008;2023-02-20T04:54:28;9.20;65.10
29007;DHT22;16104;48.642;9.008;2023-02-20T04:59:23;9.10;65.20
29007;DHT22;16104;48.642;9.008;2023-02-20T05:04:20;9.10;65.10
29007;DHT22;16104;48.642;9.008;2023-02-20T05:09:16;9.10;65.20
29007;DHT22;16104;48.642;9.008;2023-02-20T05:14:11;9.00;65.20
29007;DHT22;16104;48.642;9.008;2023-02-20T05:19:07;9.00;65.30
29007;DHT22;16104;48.642;9.008;2023-02-20T05:24:04;8.90;65.30
29007;DHT22;16104;48.642;9.008;2023-02-20T05:28:59;8.90;65.40
29007;DHT22;16104;48.642;9.008;2023-02-20T05:33:55;8.80;66.20
29007;DHT22;16104;48.642;9.008;2023-02-20T05:38:50;8.80;65.40
29007;DHT22;16104;48.642;9.008;2023-02-20T05:43:46;8.80;65.60
29007;DHT22;16104;48.642;9.008;2023-02-20T05:48:42;8.70;65.70
29007;DHT22;16104;48.642;9.008;2023-02-20T05:53:38;8.70;65.70
29007;DHT22;16104;48.642;9.008;2023-02-20T05:58:33;8.70;65.80
29007;DHT22;16104;48.642;9.008;2023-02-20T06:03:30;8.60;65.70
29007;DHT22;16104;48.642;9.008;2023-02-20T06:08:25;8.60;65.80
29007;DHT22;16104;48.642;9.008;2023-02-20T06:13:21;8.60;65.70
29007;DHT22;16104;48.642;9.008;2023-02-20T06:18:16;8.60;65.60
29007;DHT22;16104;48.642;9.008;2023-02-20T06:23:12;8.60;65.70
29007;DHT22;16104;48.642;9.008;2023-02-20T06:28:07;8.60;65.70
29007;DHT22;16104;48.642;9.008;2023-02-20T06:33:03;8.60;65.80
29007;DHT22;16104;48.642;9.008;2023-02-20T06:37:59;8.50;65.80
29007;DHT22;16104;48.642;9.008;2023-02-20T06:42:55;8.50;65.60
29007;DHT22;16104;48.642;9.008;2023-02-20T06:47:50;8.50;65.70
29007;DHT22;16104;48.642;9.008;2023-02-20T06:52:46;8.50;65.70
29007;DHT22;16104;48.642;9.008;2023-02-20T06:57:41;8.50;65.60
29007;DHT22;16104;48.642;9.008;2023-02-20T07:02:37;8.40;65.60
29007;DHT22;16104;48.642;9.008;2023-02-20T07:07:32;8.40;65.60
29007;DHT22;16104;48.642;9.008;2023-02-20T07:12:29;8.40;65.70
29007;DHT22;16104;48.642;9.008;2023-02-20T07:17:25;8.40;65.80
29007;DHT22;16104;48.642;9.008;2023-02-20T07:22:21;8.40;65.80
29007;DHT22;16104;48.642;9.008;2023-02-20T07:27:16;8.40;65.80
29007;DHT22;16104;48.642;9.008;2023-02-20T07:32:13;8.40;65.80
29007;DHT22;16104;48.642;9.008;2023-02-20T07:37:09;8.50;65.80
29007;DHT22;16104;48.642;9.008;2023-02-20T07:42:04;8.50;65.80
29007;DHT22;16104;48.642;9.008;2023-02-20T07:47:00;8.50;65.80
29007;DHT22;16104;48.642;9.008;2023-02-20T07:51:56;8.50;65.80
29007;DHT22;16104;48.642;9.008;2023-02-20T07:56:52;8.60;65.70
29007;DHT22;16104;48.642;9.008;2023-02-20T08:01:48;8.70;65.80
29007;DHT22;16104;48.642;9.008;2023-02-20T08:06:44;8.70;65.60
29007;DHT22;16104;48.642;9.008;2023-02-20T08:11:39;8.80;65.60
29007;DHT22;16104;48.642;9.008;2023-02-20T08:16:34;8.90;65.50
29007;DHT22;16104;48.642;9.008;2023-02-20T08:21:30;9.00;65.40
29007;DHT22;16104;48.642;9.008;2023-02-20T08:26:25;9.10;65.20
29007;DHT22;16104;48.642;9.008;2023-02-20T08:31:21;9.20;65.10
29007;DHT22;16104;48.642;9.008;2023-02-20T08:36:17;9.30;64.90
29007;DHT22;16104;48.642;9.008;2023-02-20T08:41:13;9.30;64.80
29007;DHT22;16104;48.642;9.008;2023-02-20T08:46:09;9.40;64.80
29007;DHT22;16104;48.642;9.008;2023-02-20T08:51:05;9.50;64.70
29007;DHT22;16104;48.642;9.008;2023-02-20T08:56:01;9.60;64.50
29007;DHT22;16104;48.642;9.008;2023-02-20T09:00:57;9.70;64.40
29007;DHT22;16104;48.642;9.008;2023-02-20T09:05:52;9.80;64.30
29007;DHT22;16104;48.642;9.008;2023-02-20T09:10:48;9.90;64.10
29007;DHT22;16104;48.642;9.008;2023-02-20T09:15:43;10.00;63.90
29007;DHT22;16104;48.642;9.008;2023-02-20T09:20:39;10.10;63.70
29007;DHT22;16104;48.642;9.008;2023-02-20T09:25:35;10.30;63.70
29007;DHT22;16104;48.642;9.008;2023-02-20T09:30:30;10.40;63.50
29007;DHT22;16104;48.642;9.008;2023-02-20T09:35:28;10.60;63.30
29007;DHT22;16104;48.642;9.008;2023-02-20T09:40:26;10.70;63.20
29007;DHT22;16104;48.642;9.008;2023-02-20T09:45:24;10.90;62.70
29007;DHT22;16104;48.642;9.008;2023-02-20T09:55:32;11.30;61.80
29007;DHT22;16104;48.642;9.008;2023-02-20T10:00:32;11.40;61.30
29007;DHT22;16104;48.642;9.008;2023-02-20T10:05:30;11.60;61.20
29007;DHT22;16104;48.642;9.008;2023-02-20T10:10:31;11.90;61.10
29007;DHT22;16104;48.642;9.008;2023-02-20T10:15:51;12.20;60.60
29007;DHT22;16104;48.642;9.008;2023-02-20T10:21:11;12.30;59.50
29007;DHT22;16104;48.642;9.008;2023-02-20T10:36:33;12.50;58.70
29007;DHT22;16104;48.642;9.008;2023-02-20T10:46:42;12.80;58.60
29007;DHT22;16104;48.642;9.008;2023-02-20T10:51:45;13.00;58.90
29007;DHT22;16104;48.642;9.008;2023-02-20T11:02:18;13.50;58.20
29007;DHT22;16104;48.642;9.008;2023-02-20T11:07:16;13.80;57.70
29007;DHT22;16104;48.642;9.008;2023-02-20T11:12:31;14.00;58.00
29007;DHT22;16104;48.642;9.008;2023-02-20T11:17:28;14.30;56.10
29007;DHT22;16104;48.642;9.008;2023-02-20T11:22:45;14.60;56.80
29007;DHT22;16104;48.642;9.008;2023-02-20T11:27:43;14.90;55.40
29007;DHT22;16104;48.642;9.008;2023-02-20T11:32:40;15.10;55.90
29007;DHT22;16104;48.642;9.008;2023-02-20T11:37:37;15.40;54.90
29007;DHT22;16104;48.642;9.008;2023-02-20T11:42:33;15.70;54.40
29007;DHT22;16104;48.642;9.008;2023-02-20T11:47:29;16.00;54.10
29007;DHT22;16104;48.642;9.008;2023-02-20T11:52:25;16.30;53.90
29007;DHT22;16104;48.642;9.008;2023-02-20T11:57:25;16.60;53.50
29007;DHT22;16104;48.642;9.008;2023-02-20T12:02:24;16.90;52.00
29007;DHT22;16104;48.642;9.008;2023-02-20T12:12:48;17.60;50.10
29007;DHT22;16104;48.642;9.008;2023-02-20T12:18:00;17.90;50.00
29007;DHT22;16104;48.642;9.008;2023-02-20T12:23:23;18.10;48.90
29007;DHT22;16104;48.642;9.008;2023-02-20T12:54:50;19.50;44.00
29007;DHT22;16104;48.642;9.008;2023-02-20T13:00:01;19.70;43.60
29007;DHT22;16104;48.642;9.008;2023-02-20T13:04:59;20.00;44.70
29007;DHT22;16104;48.642;9.008;2023-02-20T13:20:31;20.60;43.90
29007;DHT22;16104;48.642;9.008;2023-02-20T13:30:28;21.00;41.10
29007;DHT22;16104;48.642;9.008;2023-02-20T13:35:46;21.10;42.00
29007;DHT22;16104;48.642;9.008;2023-02-20T13:46:09;21.40;41.00
29007;DHT22;16104;48.642;9.008;2023-02-20T13:56:18;21.80;39.00
29007;DHT22;16104;48.642;9.008;2023-02-20T14:01:14;21.90;38.50
29007;DHT22;16104;48.642;9.008;2023-02-20T14:06:13;22.00;38.20
29007;DHT22;16104;48.642;9.008;2023-02-20T14:11:24;22.10;38.10
29007;DHT22;16104;48.642;9.008;2023-02-20T14:21:22;22.20;35.70
29007;DHT22;16104;48.642;9.008;2023-02-20T14:26:19;22.20;36.60
29007;DHT22;16104;48.642;9.008;2023-02-20T14:31:23;22.30;36.20
29007;DHT22;16104;48.642;9.008;2023-02-20T14:41:24;22.30;34.40
29007;DHT22;16104;48.642;9.008;2023-02-20T14:46:31;22.40;35.30
29007;DHT22;16104;48.642;9.008;2023-02-20T14:51:27;22.40;35.00
29007;DHT22;16104;48.642;9.008;2023-02-20T14:56:22;22.50;34.40
29007;DHT22;16104;48.642;9.008;2023-02-20T15:01:32;22.50;34.20
29007;DHT22;16104;48.642;9.008;2023-02-20T15:06:34;22.40;31.80
29007;DHT22;16104;48.642;9.008;2023-02-20T15:11:31;22.40;32.50
29007;DHT22;16104;48.642;9.008;2023-02-20T15:16:31;22.30;33.40
29007;DHT22;16104;48.642;9.008;2023-02-20T15:21:35;22.20;32.70
29007;DHT22;16104;48.642;9.008;2023-02-20T15:26:33;22.20;33.20
29007;DHT22;16104;48.642;9.008;2023-02-20T15:31:30;22.10;32.70
29007;DHT22;16104;48.642;9.008;2023-02-20T15:36:25;22.10;33.10
29007;DHT22;16104;48.642;9.008;2023-02-20T15:41:22;21.90;32.70
29007;DHT22;16104;48.642;9.008;2023-02-20T15:46:19;21.80;32.40
29007;DHT22;16104;48.642;9.008;2023-02-20T15:51:21;21.60;32.80
29007;DHT22;16104;48.642;9.008;2023-02-20T15:56:17;21.40;32.10
29007;DHT22;16104;48.642;9.008;2023-02-20T16:01:14;21.20;34.00
29007;DHT22;16104;48.642;9.008;2023-02-20T16:06:11;21.10;34.00
29007;DHT22;16104;48.642;9.008;2023-02-20T16:11:07;20.90;34.00
29007;DHT22;16104;48.642;9.008;2023-02-20T16:16:15;20.70;33.40
29007;DHT22;16104;48.642;9.008;2023-02-20T16:21:13;20.50;33.10
29007;DHT22;16104;48.642;9.008;2023-02-20T16:26:09;20.30;34.30
29007;DHT22;16104;48.642;9.008;2023-02-20T16:31:05;20.00;33.80
29007;DHT22;16104;48.642;9.008;2023-02-20T16:36:00;19.80;33.70
29007;DHT22;16104;48.642;9.008;2023-02-20T16:40:56;19.60;34.20
29007;DHT22;16104;48.642;9.008;2023-02-20T16:45:53;19.30;33.80
29007;DHT22;16104;48.642;9.008;2023-02-20T16:50:51;19.00;34.50
29007;DHT22;16104;48.642;9.008;2023-02-20T16:55:50;18.70;34.00
29007;DHT22;16104;48.642;9.008;2023-02-20T17:00:46;18.40;34.20
29007;DHT22;16104;48.642;9.008;2023-02-20T17:05:43;18.10;34.30
29007;DHT22;16104;48.642;9.008;2023-02-20T17:10:38;17.80;34.40
29007;DHT22;16104;48.642;9.008;2023-02-20T17:15:34;17.50;35.50
29007;DHT22;16104;48.642;9.008;2023-02-20T17:20:29;17.30;35.00
29007;DHT22;16104;48.642;9.008;2023-02-20T17:25:25;17.00;35.20
29007;DHT22;16104;48.642;9.008;2023-02-20T17:30:22;16.80;35.50
29007;DHT22;16104;48.642;9.008;2023-02-20T17:35:18;16.60;35.50
29007;DHT22;16104;48.642;9.008;2023-02-20T17:40:14;16.40;36.80
29007;DHT22;16104;48.642;9.008;2023-02-20T17:45:10;16.30;36.50
29007;DHT22;16104;48.642;9.008;2023-02-20T17:50:06;16.00;36.80
29007;DHT22;16104;48.642;9.008;2023-02-20T17:55:02;15.90;37.40
29007;DHT22;16104;48.642;9.008;2023-02-20T17:59:57;15.70;37.50
29007;DHT22;16104;48.642;9.008;2023-02-20T18:04:53;15.50;37.70
29007;DHT22;16104;48.642;9.008;2023-02-20T18:09:48;15.40;38.10
29007;DHT22;16104;48.642;9.008;2023-02-20T18:14:44;15.20;38.40
29007;DHT22;16104;48.642;9.008;2023-02-20T18:19:40;15.10;38.70
29007;DHT22;16104;48.642;9.008;2023-02-20T18:24:35;14.90;38.70
29007;DHT22;16104;48.642;9.008;2023-02-20T18:29:31;14.80;38.70
29007;DHT22;16104;48.642;9.008;2023-02-20T18:34:27;14.70;38.90
29007;DHT22;16104;48.642;9.008;2023-02-20T18:39:23;14.50;39.20
29007;DHT22;16104;48.642;9.008;2023-02-20T18:44:19;14.40;39.30
29007;DHT22;16104;48.642;9.008;2023-02-20T18:49:15;14.30;39.40
29007;DHT22;16104;48.642;9.008;2023-02-20T18:54:20;14.20;39.70
29007;DHT22;16104;48.642;9.008;2023-02-20T18:59:17;14.00;39.60
29007;DHT22;16104;48.642;9.008;2023-02-20T19:04:13;13.90;39.90
29007;DHT22;16104;48.642;9.008;2023-02-20T19:09:12;13.80;40.10
29007;DHT22;16104;48.642;9.008;2023-02-20T19:14:08;13.70;40.50
29007;DHT22;16104;48.642;9.008;2023-02-20T19:19:03;13.60;40.80
29007;DHT22;16104;48.642;9.008;2023-02-20T19:23:58;13.40;40.80
29007;DHT22;16104;48.642;9.008;2023-02-20T19:28:54;13.30;40.90
29007;DHT22;16104;48.642;9.008;2023-02-20T19:33:49;13.20;41.10
29007;DHT22;16104;48.642;9.008;2023-02-20T19:38:45;13.00;41.40
29007;DHT22;16104;48.642;9.008;2023-02-20T19:43:43;12.90;41.40
29007;DHT22;16104;48.642;9.008;2023-02-20T19:48:40;12.80;41.90
29007;DHT22;16104;48.642;9.008;2023-02-20T19:53:35;12.70;42.00
29007;DHT22;16104;48.642;9.008;2023-02-20T19:58:31;12.60;42.10
29007;DHT22;16104;48.642;9.008;2023-02-20T20:03:26;12.50;42.30
29007;DHT22;16104;48.642;9.008;2023-02-20T20:08:22;12.40;42.60
29007;DHT22;16104;48.642;9.008;2023-02-20T20:13:17;12.30;42.90
29007;DHT22;16104;48.642;9.008;2023-02-20T20:18:13;12.20;43.20
29007;DHT22;16104;48.642;9.008;2023-02-20T20:23:09;12.10;43.60
29007;DHT22;16104;48.642;9.008;2023-02-20T20:28:05;12.00;43.90
29007;DHT22;16104;48.642;9.008;2023-02-20T20:33:05;12.00;44.60
29007;DHT22;16104;48.642;9.008;2023-02-20T20:38:01;11.90;44.50
29007;DHT22;16104;48.642;9.008;2023-02-20T20:42:56;11.80;44.60
29007;DHT22;16104;48.642;9.008;2023-02-20T20:47:53;11.70;44.80
29007;DHT22;16104;48.642;9.008;2023-02-20T20:52:49;11.60;44.90
29007;DHT22;16104;48.642;9.008;2023-02-20T20:57:44;11.60;45.20
29007;DHT22;16104;48.642;9.008;2023-02-20T21:02:40;11.50;45.40
29007;DHT22;16104;48.642;9.008;2023-02-20T21:07:36;11.40;45.50
29007;DHT22;16104;48.642;9.008;2023-02-20T21:12:31;11.30;45.60
29007;DHT22;16104;48.642;9.008;2023-02-20T21:17:27;11.20;45.80
29007;DHT22;16104;48.642;9.008;2023-02-20T21:22:22;11.10;46.00
29007;DHT22;16104;48.642;9.008;2023-02-20T21:27:18;11.00;46.20
29007;DHT22;16104;48.642;9.008;2023-02-20T21:32:14;11.00;46.40
29007;DHT22;16104;48.642;9.008;2023-02-20T21:37:09;10.90;46.40
29007;DHT22;16104;48.642;9.008;2023-02-20T21:42:05;10.80;46.70
29007;DHT22;16104;48.642;9.008;2023-02-20T21:47:19;10.70;47.70
29007;DHT22;16104;48.642;9.008;2023-02-20T21:52:16;10.60;47.20
29007;DHT22;16104;48.642;9.008;2023-02-20T21:57:11;10.50;47.40
29007;DHT22;16104;48.642;9.008;2023-02-20T22:02:10;10.40;47.60
29007;DHT22;16104;48.642;9.008;2023-02-20T22:07:09;10.30;47.80
29007;DHT22;16104;48.642;9.008;2023-02-20T22:12:23;10.30;47.90
29007;DHT22;16104;48.642;9.008;2023-02-20T22:17:38;10.20;48.10
29007;DHT22;16104;48.642;9.008;2023-02-20T22:22:52;10.10;48.20
29007;DHT22;16104;48.642;9.008;2023-02-20T22:28:06;10.00;48.50
29007;DHT22;16104;48.642;9.008;2023-02-20T22:33:20;9.90;48.70
29007;DHT22;16104;48.642;9.008;2023-02-20T22:38:34;9.80;49.00
29007;DHT22;16104;48.642;9.008;2023-02-20T22:43:48;9.80;49.10
29007;DHT22;16104;48.642;9.008;2023-02-20T22:49:03;9.70;49.20
29007;DHT22;16104;48.642;9.008;2023-02-20T22:54:21;9.70;49.40
29007;DHT22;16104;48.642;9.008;2023-02-20T22:59:35;9.60;49.60
29007;DHT22;16104;48.642;9.008;2023-02-20T23:04:49;9.60;49.80
29007;DHT22;16104;48.642;9.008;2023-02-20T23:10:04;9.50;49.90
29007;DHT22;16104;48.642;9.008;2023-02-20T23:15:18;9.50;50.10
29007;DHT22;16104;48.642;9.008;2023-02-20T23:20:32;9.40;50.10
29007;DHT22;16104;48.642;9.008;2023-02-20T23:25:46;9.40;50.30
29007;DHT22;16104;48.642;9.008;2023-02-20T23:31:00;9.30;50.40
29007;DHT22;16104;48.642;9.008;2023-02-20T23:36:14;9.30;50.50
29007;DHT22;16104;48.642;9.008;2023-02-20T23:41:29;9.20;50.60
29007;DHT22;16104;48.642;9.008;2023-02-20T23:46:45;9.20;50.80
29007;DHT22;16104;48.642;9.008;2023-02-20T23:51:59;9.10;50.90
29007;DHT22;16104;48.642;9.008;2023-02-20T23:57:13;9.10;50.90
